Tiempo atmosférico en la estación meteorológica de Es Mercadal, Illes Balears (77 m.)



Fecha
DESCASC
Temp. máxima en grados centígrados (hora)
DESCASC
Temp. mínima en grados centígrados (hora)
DESCASC
Temp. media en grados centígrados
DESCASC
Racha de viento máxima en m/sg (hora)
DESCASC
Velocidad máxima media en intervalos de 10 minutos(hora)
DESCASC
Precipitaciones diarias en mm
DESCASC
Precipitaciones de 00:00 a 06:00 en mm
DESCASC
Precipitaciones de 06:00 a 12:00 en mm
DESCASC
Precipitaciones de 12:00 a 18:00 en mm
DESCASC
Precipitaciones de 18:00 a 24:00 en mm
DESCASC
16-01-2020 16.1 (14:50) 7.5 (03:30) 11.8 5.83 (11:20) 4.17 (22:10) 0 0 0 0 0
15-01-2020 14.8 (12:40) 9.3 (23:20) 12.1 10.83 (13:10) 7.5 (13:10) 0 0 0 0 0
14-01-2020 14.2 (13:10) 10.8 (00:20) 12.5 12.5 (10:30) 7.78 (11:40) 0 0 0 0 0
13-01-2020 13.7 (14:40) 7 (01:50) 10.3 7.22 (13:10) 5 (13:10) 0 0 0 0 0
12-01-2020 12.3 (12:20) 7.9 (00:00) 10.1 9.72 (04:40) 6.11 (13:10) 0 0 0 0 0
11-01-2020 11.9 (02:00) 10.2 (00:00) 11 13.61 (01:20) 8.33 (02:10) 0 0 0 0 0
10-01-2020 12.2 (19:50) 8.1 (00:00) 10.2 12.78 (23:30) 8.33 (20:30) 1.4 0 0.2 1.2 0
09-01-2020 15.8 (15:00) 7.5 (00:00) 11.7 6.39 (10:50) 3.89 (15:30) 0 0 0 0 0
08-01-2020 14 (14:10) 8.7 (00:00) 11.3 11.67 (05:20) 7.22 (05:20) 0 0 0 0 0
07-01-2020 14.2 (14:50) 7.3 (00:00) 10.8 6.11 (15:50) 3.89 (12:00) 0 0 0 0 0
06-01-2020 13.7 (12:40) 8.1 (00:00) 10.9 4.17 (12:20) 2.78 (09:10) 0 0 0 0 0
05-01-2020 14.7 (12:40) 9.8 (00:00) 12.3 7.5 (13:20) 5.28 (14:40) 0 0 0 0 0
04-01-2020 15 (14:20) 10.2 (00:00) 12.6 11.11 (06:00) 7.22 (06:00) 0 0 0 0 0
03-01-2020 13.7 (14:30) 10 (00:00) 11.8 6.39 (12:30) 4.17 (13:10) 0 0 0 0 0
02-01-2020 14.1 (13:00) 8.7 (00:00) 11.4 3.89 (13:20) 2.5 (13:20) 0 0 0 0 0
01-01-2020 15.1 (13:20) 8.5 (00:00) 11.8 3.89 (13:40) 2.78 (13:40) 0 0 0 0 0
31-12-2019 14.3 (13:30) 7.7 (00:00) 11 5.28 (12:40) 2.78 (12:50) 0 0 0 0 0
30-12-2019 15.4 (12:20) 7.8 (00:00) 11.6 -- (--) -- (--) 0 0 0 0 0
29-12-2019 15 (12:20) 8 (00:00) 11.5 4.17 (15:10) 2.78 (13:50) 0 0 0 0 0
28-12-2019 13.9 (13:20) 9.8 (00:00) 11.8 11.94 (13:30) 8.06 (14:00) 0 0 0 0 0
27-12-2019 15.5 (12:20) 11.1 (00:00) 13.3 11.67 (14:00) 7.5 (00:10) 0 0 0 0 0
26-12-2019 16.6 (12:00) 11.4 (00:00) 14 12.78 (22:20) 9.17 (22:20) 0 0 0 0 0
25-12-2019 18.9 (14:30) 12.1 (00:00) 15.5 6.67 (12:30) 5 (12:30) 0 0 0 0 0
24-12-2019 18.6 (14:10) 10.2 (00:00) 14.4 8.61 (13:00) 5.28 (12:10) 0 0 0 0 0
23-12-2019 16.5 (00:10) 10.2 (00:00) 13.3 18.33 (03:20) 10.28 (01:30) 0 0 0 0 0
22-12-2019 19.1 (00:00) 15.3 (00:00) 17.2 28.33 (02:30) 18.61 (02:30) 0.2 0.2 0 0 0
21-12-2019 19.7 (12:40) 15.7 (00:00) 17.7 21.94 (21:40) 15 (22:10) 0.4 0.4 0 0 0
20-12-2019 17.1 (09:20) 14.4 (00:00) 15.8 21.67 (12:20) 14.17 (12:30) 1.2 0 0 0.2 1

Gráficas

Temp. máximas Temp. mínimas Temp. medias Precipitaciones Rachas de viento máximas Velocidades máximas media en intervalos de 10 minutos

Datos horarios

Fecha y hora oficial Temperatura (ºC) Velocidad del viento (km/h) Dirección del viento Racha (km/h) Dirección de racha Precipitación (mm) Presión (hPa) Tendencia (hPa) Humedad (%)
2020-01-18 23:00:00 10.7 7 Sudoeste 13 Sudoeste 0 -- -- 85
2020-01-18 22:00:00 10.1 10 Sur 17 Sudoeste 0 -- -- 87
2020-01-18 21:00:00 10.9 13 Sur 16 Sur 0 -- -- 89
2020-01-18 20:00:00 11 6 Sur 10 Sur 0 -- -- 88
2020-01-18 19:00:00 11.4 6 Sur 9 Sur 0 -- -- 85
2020-01-18 18:00:00 12.1 8 Sur 17 Sudoeste 0 -- -- 80
2020-01-18 17:00:00 13.4 17 Sudoeste 25 Sudoeste 0 -- -- 73
2020-01-18 16:00:00 13.8 14 Sudoeste 25 Sudoeste 0 -- -- 67
2020-01-18 15:00:00 14.2 18 Sudoeste 30 Sudoeste 0 -- -- 65
2020-01-18 14:00:00 13.7 18 Sudoeste 35 Sudoeste 0 -- -- 70
2020-01-18 13:00:00 13.6 23 Sudoeste 32 Sudoeste 0 -- -- 72
2020-01-18 12:00:00 13.4 17 Sudoeste 28 Sudoeste 0 -- -- 70
2020-01-18 11:00:00 12.8 10 Sudoeste 18 Sur 0 -- -- 78
2020-01-18 10:00:00 10.8 6 Sur 13 Sudeste 0 -- -- 82
2020-01-18 09:00:00 9.4 4 Sur 6 Sur 0 -- -- 85
2020-01-18 08:00:00 8.6 3 Sudoeste 9 Sudeste 0 -- -- 85
2020-01-18 07:00:00 8.5 7 Sudeste 9 Sudeste 0 -- -- 83
2020-01-18 06:00:00 8.3 5 Sur 9 Sur 0 -- -- 84
2020-01-18 05:00:00 8.5 4 Sudoeste 9 Sudoeste 0 -- -- 86
2020-01-18 04:00:00 8.3 3 Oeste 9 Norte 0 -- -- 82
2020-01-18 03:00:00 8.5 5 Oeste 10 Oeste 0 -- -- 80
2020-01-18 02:00:00 9 0 Calma 12 Oeste 0 -- -- 79
2020-01-18 01:00:00 8.4 4 Oeste 11 Nordeste 0 -- -- 77
2020-01-18 00:00:00 9.5 3 Oeste 11 Nordeste 0 -- -- 75
2020-01-17 23:00:00 10.4 6 Norte 23 Nordeste 0 -- -- 73
2020-01-17 22:00:00 11.6 16 Nordeste 29 Nordeste 0 -- -- 70
2020-01-17 21:00:00 11.6 19 Norte 39 Noroeste 0 -- -- 74
2020-01-17 20:00:00 13.9 19 Noroeste 37 Noroeste 0 -- -- 70
2020-01-17 19:00:00 13.4 18 Oeste 34 Noroeste 0 -- -- 70
2020-01-17 18:00:00 13.3 14 Sudoeste 28 Oeste 0 -- -- 69
2020-01-17 17:00:00 14.7 16 Oeste 31 Sudoeste 0 -- -- 63
2020-01-17 16:00:00 15.7 20 Oeste 33 Oeste 0 -- -- 64
2020-01-17 15:00:00 15.5 17 Oeste 33 Sudoeste 0 -- -- 69
2020-01-17 14:00:00 15.7 24 Sudoeste 37 Sudoeste 0 -- -- 74
2020-01-17 13:00:00 14.7 23 Sudoeste 35 Sudoeste 0 -- -- 79
2020-01-17 12:00:00 14.5 27 Sudoeste 45 Sudoeste 0 -- -- 80
2020-01-17 11:00:00 13.9 30 Sudoeste 46 Sudoeste 0 -- -- 82
2020-01-17 10:00:00 13.4 26 Sudoeste 40 Sudoeste 0 -- -- 83
2020-01-17 09:00:00 12.9 26 Sudoeste 39 Sudoeste 0 -- -- 85
2020-01-17 08:00:00 12.6 27 Sudoeste 41 Sudoeste 0 -- -- 85
2020-01-17 07:00:00 12.5 30 Sudoeste 42 Sudoeste 0 -- -- 85
2020-01-17 06:00:00 12.5 23 Sudoeste 35 Sudoeste 0 -- -- 86
2020-01-17 05:00:00 11.9 14 Sudoeste 30 Sudoeste 0 -- -- 87
2020-01-17 04:00:00 11.6 12 Sur 21 Sudoeste 0 -- -- 88
2020-01-17 03:00:00 11.9 16 Sudoeste 31 Sudoeste 0 -- -- 86
2020-01-17 02:00:00 12.2 17 Sudoeste 29 Sudoeste 0 -- -- 88
2020-01-17 01:00:00 12.1 17 Sudoeste 25 Sudoeste 0 -- -- 90
2020-01-17 00:00:00 11.6 14 Sudoeste 18 Sur 0 -- -- 91
2020-01-16 23:00:00 11.7 14 Sudoeste 19 Sudoeste 0 -- -- 91
2020-01-16 22:00:00 11.4 14 Sudoeste 17 Sudoeste 0 -- -- 91
2020-01-16 21:00:00 11.3 8 Sudoeste 14 Sur 0 -- -- 89
2020-01-16 20:00:00 11.2 10 Sudoeste 12 Sudoeste 0 -- -- 86
2020-01-16 19:00:00 10.9 2 Sudoeste 6 Sudoeste 0 -- -- 83
2020-01-16 18:00:00 11.8 5 Oeste 13 Sudoeste 0 -- -- 80
2020-01-16 17:00:00 13.9 10 Sur 15 Sudoeste 0 -- -- 73
2020-01-16 16:00:00 14.9 10 Sudoeste 15 Sudoeste 0 -- -- 70
2020-01-16 15:00:00 15.5 7 Sur 16 Sur 0 -- -- 66
2020-01-16 14:00:00 15.9 9 Sur 17 Sur 0 -- -- 66
2020-01-16 13:00:00 15.1 10 Sur 18 Sur 0 -- -- 69
2020-01-16 12:00:00 14.4 10 Sudoeste 21 Sur 0 -- -- 75
2020-01-16 11:00:00 13.7 13 Sur 19 Sur 0 -- -- 82
2020-01-16 10:00:00 12 4 Sur 9 Sudeste 0 -- -- 88
2020-01-16 09:00:00 9.8 4 Sur 7 Sur 0 -- -- 90
2020-01-16 08:00:00 9.4 5 Sur 8 Sur 0 -- -- 90
2020-01-16 07:00:00 8.7 7 Sur 9 Sur 0 -- -- 90
2020-01-16 06:00:00 8.6 4 Sur 6 Sur 0 -- -- 90
2020-01-16 05:00:00 8.5 2 Sudoeste 6 Sur 0 -- -- 89
2020-01-16 04:00:00 8 4 Sur 6 Sur 0 -- -- 89
2020-01-16 03:00:00 8.6 3 Sur 4 Oeste 0 -- -- 90
2020-01-16 02:00:00 8.5 2 Sur 4 Oeste 0 -- -- 88
2020-01-16 01:00:00 9.5 3 Sudeste 5 Sudeste 0 -- -- 86
2020-01-16 00:00:00 9.8 3 Oeste 4 Oeste 0 -- -- 87
2020-01-15 23:00:00 9.8 0 Calma 4 Sudoeste 0 -- -- 85
2020-01-15 22:00:00 10.1 4 Sur 6 Sur 0 -- -- 87
2020-01-15 21:00:00 9.8 3 Sudoeste 5 Sudoeste 0 -- -- 87
2020-01-15 20:00:00 10.1 0 Calma 5 Sur 0 -- -- 86
2020-01-15 19:00:00 11.3 3 Sur 10 Sudoeste 0 -- -- 84
2020-01-15 18:00:00 12.3 7 Sur 15 Sur 0 -- -- 79
2020-01-15 17:00:00 13.5 10 Sur 22 Sudoeste 0 -- -- 76
2020-01-15 16:00:00 13.9 15 Sudoeste 36 Sur 0 -- -- 76
2020-01-15 15:00:00 14.2 24 Sur 34 Sur 0 -- -- 74
2020-01-15 14:00:00 14.3 24 Sudoeste 39 Sur 0 -- -- 72
2020-01-15 13:00:00 14.7 25 Sur 39 Sur 0 -- -- 70
2020-01-15 12:00:00 14.1 23 Sur 36 Sudoeste 0 -- -- 71
2020-01-15 11:00:00 13.9 22 Sur 33 Sur 0 -- -- 70
2020-01-15 10:00:00 13.4 17 Sur 27 Sur 0 -- -- 72
2020-01-15 09:00:00 12.6 11 Sur 21 Sur 0 -- -- 73
2020-01-15 08:00:00 12.1 10 Sudeste 15 Sur 0 -- -- 71
2020-01-15 07:00:00 12.1 6 Sur 13 Sur 0 -- -- 69
2020-01-15 06:00:00 12.2 10 Sur 15 Sudeste 0 -- -- 71
2020-01-15 05:00:00 12.1 9 Sur 21 Sur 0 -- -- 71
2020-01-15 04:00:00 11.3 11 Sur 16 Sur 0 -- -- 74
2020-01-15 03:00:00 11.6 11 Sur 26 Sur 0 -- -- 75
2020-01-15 02:00:00 11.3 14 Sur 24 Sudeste 0 -- -- 75
2020-01-15 01:00:00 11.8 16 Sur 28 Sur 0 -- -- 75
2020-01-15 00:00:00 11.5 18 Sur 28 Sur 0 -- -- 73
2020-01-14 23:00:00 11.4 14 Sur 30 Sur 0 -- -- 71
2020-01-14 22:00:00 11.8 13 Sur 31 Sur 0 -- -- 69
2020-01-14 21:00:00 11.7 16 Sur 33 Sur 0 -- -- 68
2020-01-14 20:00:00 11.7 18 Sur 31 Sur 0 -- -- 69
2020-01-14 19:00:00 11.8 16 Sur 27 Sur 0 -- -- 67
2020-01-14 18:00:00 12.1 15 Sudoeste 28 Sur 0 -- -- 66
2020-01-14 17:00:00 12.8 18 Sur 35 Sur 0 -- -- 66
2020-01-14 16:00:00 13.6 23 Sur 37 Sudoeste 0 -- -- 62
2020-01-14 15:00:00 14.2 23 Sudoeste 37 Sudoeste 0 -- -- 60
2020-01-14 14:00:00 13.6 23 Sudoeste 39 Sur 0 -- -- 64
2020-01-14 13:00:00 13.6 27 Sudoeste 42 Sudoeste 0 -- -- 61
2020-01-14 12:00:00 13.4 24 Sudoeste 42 Sudoeste 0 -- -- 61
2020-01-14 11:00:00 13.2 23 Sudoeste 45 Sur 0 -- -- 64
2020-01-14 10:00:00 13 21 Sudoeste 33 Sudoeste 0 -- -- 64
2020-01-14 09:00:00 12.1 16 Sudoeste 32 Sudoeste 0 -- -- 66
2020-01-14 08:00:00 11.6 11 Sur 24 Sudoeste 0 -- -- 67
2020-01-14 07:00:00 12 15 Sudoeste 27 Sur 0 -- -- 66
2020-01-14 06:00:00 11.8 12 Sudoeste 27 Sudoeste 0 -- -- 71
2020-01-14 05:00:00 11.8 15 Sudoeste 28 Sur 0 -- -- 70
2020-01-14 04:00:00 11.7 15 Sudoeste 28 Sudoeste 0 -- -- 69
2020-01-14 03:00:00 11.6 16 Sudoeste 30 Sudoeste 0 -- -- 70
2020-01-14 02:00:00 11.4 16 Sudoeste 25 Sudoeste 0 -- -- 73
2020-01-14 01:00:00 11.2 17 Sudoeste 25 Sur 0 -- -- 75
2020-01-14 00:00:00 11.1 14 Sudoeste 24 Sudoeste 0 -- -- 74
2020-01-13 23:00:00 11 15 Sudoeste 22 Sudoeste 0 -- -- 75
2020-01-13 22:00:00 10.3 12 Sur 19 Sudoeste 0 -- -- 78
2020-01-13 21:00:00 10.7 10 Sudoeste 23 Sudoeste 0 -- -- 76
2020-01-13 20:00:00 10.9 13 Sudoeste 19 Sudoeste 0 -- -- 80
2020-01-13 19:00:00 10.4 9 Sur 15 Sudoeste 0 -- -- 83
2020-01-13 18:00:00 11 8 Sudoeste 13 Sudoeste 0 -- -- 79
2020-01-13 17:00:00 12.1 7 Sudoeste 22 Sudoeste 0 -- -- 74
2020-01-13 16:00:00 13 13 Sur 21 Sudoeste 0 -- -- 69
2020-01-13 15:00:00 13.2 15 Sur 25 Sur 0 -- -- 68
2020-01-13 14:00:00 13.1 16 Sudoeste 26 Sur 0 -- -- 69
2020-01-13 13:00:00 13.3 13 Sur 24 Sur 0 -- -- 69
2020-01-13 12:00:00 12.7 12 Sudoeste 20 Sudoeste 0 -- -- 73
2020-01-13 11:00:00 11.9 11 Sudoeste 18 Sudoeste 0 -- -- 83
2020-01-13 10:00:00 11 5 Sudoeste 10 Sudoeste 0 -- -- 89
2020-01-13 09:00:00 9 9 Sudoeste 10 Sudoeste 0 -- -- 92
2020-01-13 08:00:00 7.6 8 Sudoeste 10 Sudoeste 0 -- -- 93
2020-01-13 07:00:00 8.4 4 Sudoeste 10 Sudoeste 0 -- -- 92
2020-01-13 06:00:00 8.3 4 Sudoeste 6 Sudoeste 0 -- -- 92
2020-01-13 05:00:00 7.7 5 Sudoeste 5 Sudoeste 0 -- -- 93
2020-01-13 04:00:00 8.3 4 Sudoeste 8 Oeste 0 -- -- 93
2020-01-13 03:00:00 8 5 Sudoeste 8 Oeste 0 -- -- 92
2020-01-13 02:00:00 7.4 6 Oeste 8 Oeste 0 -- -- 93
2020-01-13 01:00:00 7.7 6 Oeste 8 Oeste 0 -- -- 92
2020-01-13 00:00:00 7.9 3 Sudoeste 5 Oeste 0 -- -- 91
2020-01-12 23:00:00 8.6 3 Sudoeste 5 Sudoeste 0 -- -- 89
2020-01-12 22:00:00 9.4 0 Calma 9 Noroeste 0 -- -- 87
2020-01-12 21:00:00 9.7 0 Calma 8 Noroeste 0 -- -- 88
2020-01-12 20:00:00 10.3 3 Noroeste 5 Norte 0 -- -- 87
2020-01-12 19:00:00 10.3 4 Norte 9 Noroeste 0 -- -- 87
2020-01-12 18:00:00 10.8 6 Norte 19 Nordeste 0 -- -- 84
2020-01-12 17:00:00 11.7 11 Norte 26 Norte 0 -- -- 82
2020-01-12 16:00:00 12.1 15 Norte 30 Norte 0 -- -- 79
2020-01-12 15:00:00 12.1 17 Norte 29 Norte 0 -- -- 78
2020-01-12 14:00:00 11.9 20 Norte 31 Norte 0 -- -- 78
2020-01-12 13:00:00 12.1 20 Norte 32 Norte 0 -- -- 76
2020-01-12 12:00:00 12 19 Norte 32 Norte 0 -- -- 75
2020-01-12 11:00:00 11.8 20 Norte 31 Norte 0 -- -- 75
2020-01-12 10:00:00 12.2 17 Norte 28 Norte 0 -- -- 74
2020-01-12 09:00:00 10.7 14 Norte 23 Norte 0 -- -- 79
2020-01-12 08:00:00 10.4 14 Norte 24 Norte 0 -- -- 79
2020-01-12 07:00:00 10.3 12 Norte 25 Norte 0 -- -- 79
2020-01-12 06:00:00 10.7 14 Norte 27 Norte 0 -- -- 78
2020-01-12 05:00:00 11.2 17 Norte 35 Norte 0 -- -- 77
2020-01-12 04:00:00 11.5 17 Norte 29 Norte 0 -- -- 77
2020-01-12 03:00:00 11.5 19 Norte 29 Norte 0 -- -- 77
2020-01-12 02:00:00 11.3 15 Norte 25 Norte 0 -- -- 80
2020-01-12 01:00:00 11.4 13 Norte 22 Norte 0 -- -- 78
2020-01-12 00:00:00 11.2 14 Norte 24 Norte 0 -- -- 80
2020-01-11 23:00:00 11.1 12 Norte 20 Norte 0 -- -- 81
2020-01-11 22:00:00 10.7 11 Norte 20 Norte 0 -- -- 83
2020-01-11 21:00:00 10.5 10 Norte 23 Norte 0 -- -- 82
2020-01-11 20:00:00 11.3 14 Norte 24 Norte 0 -- -- 81
2020-01-11 19:00:00 11.1 14 Norte 33 Norte 0 -- -- 79
2020-01-11 18:00:00 11.2 19 Norte 30 Norte 0 -- -- 80
2020-01-11 17:00:00 10.8 16 Norte 35 Norte 0 -- -- 83
2020-01-11 16:00:00 10.7 18 Norte 35 Norte 0 -- -- 81
2020-01-11 15:00:00 11.1 26 Norte 40 Norte 0 -- -- 77
2020-01-11 14:00:00 11.5 24 Norte 46 Norte 0 -- -- 74
2020-01-11 13:00:00 11.4 28 Norte 42 Norte 0 -- -- 73
2020-01-11 12:00:00 11.3 26 Norte 42 Norte 0 -- -- 73
2020-01-11 11:00:00 11.2 24 Norte 44 Norte 0 -- -- 70
2020-01-11 10:00:00 11.1 30 Norte 47 Norte 0 -- -- 70
2020-01-11 09:00:00 11 27 Norte 45 Norte 0 -- -- 71
2020-01-11 08:00:00 11.2 26 Norte 45 Norte 0 -- -- 72
2020-01-11 07:00:00 11.4 29 Norte 44 Norte 0 -- -- 73
2020-01-11 06:00:00 11.4 24 Norte 41 Norte 0 -- -- 73
2020-01-11 05:00:00 11.4 22 Norte 44 Norte 0 -- -- 73
2020-01-11 04:00:00 11.6 24 Norte 48 Nordeste 0 -- -- 73
2020-01-11 03:00:00 11.8 28 Nordeste 49 Norte 0 -- -- 75
2020-01-11 02:00:00 11.9 27 Norte 49 Norte 0 -- -- 77
2020-01-11 01:00:00 11.8 28 Norte 46 Nordeste 0 -- -- 77
2020-01-11 00:00:00 11.8 26 Norte 46 Norte 0 -- -- 78
2020-01-10 23:00:00 12 23 Nordeste 41 Norte 0 -- -- 78
2020-01-10 22:00:00 12.2 23 Norte 42 Nordeste 0 -- -- 75
2020-01-10 21:00:00 12.2 24 Nordeste 45 Nordeste 0 -- -- 77
2020-01-10 20:00:00 12.1 24 Nordeste 43 Nordeste 0 -- -- 77
2020-01-10 19:00:00 12 27 Nordeste 44 Nordeste 0 -- -- 77
2020-01-10 18:00:00 11.9 26 Nordeste 42 Nordeste 0 -- -- 81
2020-01-10 17:00:00 11.4 22 Nordeste 42 Nordeste 0.4 -- -- 86
2020-01-10 16:00:00 11.5 24 Nordeste 39 Nordeste 0.2 -- -- 88
2020-01-10 15:00:00 11.1 28 Nordeste 43 Nordeste 0.6 -- -- 88
2020-01-10 14:00:00 11.9 19 Nordeste 32 Nordeste 0 -- -- 84
2020-01-10 13:00:00 11.9 18 Nordeste 34 Nordeste 0 -- -- 88
2020-01-10 12:00:00 11.4 19 Nordeste 33 Nordeste 0.2 -- -- 91
2020-01-10 11:00:00 11.2 8 Norte 17 Norte 0 -- -- 90
2020-01-10 10:00:00 10.9 3 Norte 5 Norte 0 -- -- 91
2020-01-10 09:00:00 9.9 3 Noroeste 8 Oeste 0 -- -- 91
2020-01-10 08:00:00 9.7 3 Oeste 7 Sudeste 0 -- -- 92
2020-01-10 07:00:00 9.3 3 Este 9 Oeste 0 -- -- 92
2020-01-10 06:00:00 9.4 0 Calma 8 Oeste 0 -- -- 91
2020-01-10 05:00:00 9 3 Sudoeste 12 Oeste 0 -- -- 91
2020-01-10 04:00:00 8.1 4 Este 9 Oeste 0 -- -- 90
2020-01-10 03:00:00 8.6 6 Oeste 14 Sudeste 0 -- -- 90
2020-01-10 02:00:00 8.6 6 Oeste 8 Oeste 0 -- -- 89
2020-01-10 01:00:00 9.5 5 Sudoeste 9 Sur 0 -- -- 88
2020-01-10 00:00:00 9.5 3 Sudoeste 11 Sudoeste 0 -- -- 86
2020-01-09 23:00:00 10.1 9 Sur 11 Sur 0 -- -- 86
2020-01-09 22:00:00 10.2 8 Sudoeste 10 Sudoeste 0 -- -- 86
2020-01-09 21:00:00 10 3 Sur 9 Sur 0 -- -- 87
2020-01-09 20:00:00 10.2 6 Sudeste 9 Sudeste 0 -- -- 83
2020-01-09 19:00:00 10.9 2 Sur 9 Sur 0 -- -- 79
2020-01-09 18:00:00 11.8 6 Sur 13 Sur 0 -- -- 75
2020-01-09 17:00:00 13.5 9 Sur 19 Sur 0 -- -- 71
2020-01-09 16:00:00 15 11 Sur 22 Sur 0 -- -- 65
2020-01-09 15:00:00 15.8 12 Sur 22 Sur 0 -- -- 62
2020-01-09 14:00:00 14.6 9 Sur 22 Sudeste 0 -- -- 64
2020-01-09 13:00:00 15.5 13 Sudeste 21 Sudeste 0 -- -- 63
2020-01-09 12:00:00 15.1 11 Este 22 Sudeste 0 -- -- 70
2020-01-09 11:00:00 14.8 9 Sudeste 23 Este 0 -- -- 75
2020-01-09 10:00:00 12.6 2 Oeste 5 Este 0 -- -- 90
2020-01-09 09:00:00 8.8 0 Calma 3 Este 0 -- -- 92
2020-01-09 08:00:00 8.7 2 Noroeste 5 Oeste 0 -- -- 93
2020-01-09 07:00:00 8.6 3 Oeste 4 Noroeste 0 -- -- 92
2020-01-09 06:00:00 8 0 Calma 5 Oeste 0 -- -- 89
2020-01-09 05:00:00 8.6 0 Calma 5 Oeste 0 -- -- 87
2020-01-09 04:00:00 8.5 0 Calma 7 Sudoeste 0 -- -- 89
2020-01-09 03:00:00 8.8 0 Calma 3 Sur 0 -- -- 89
2020-01-09 02:00:00 8.9 0 Calma 8 Oeste 0 -- -- 90
2020-01-09 01:00:00 8.2 3 Noroeste 6 Oeste 0 -- -- 89
2020-01-09 00:00:00 9 0 Calma 4 Oeste 0 -- -- 87
2020-01-08 23:00:00 9.2 0 Calma 4 Nordeste 0 -- -- 85
2020-01-08 22:00:00 9.7 2 Norte 5 Norte 0 -- -- 85
2020-01-08 21:00:00 11.1 3 Este 11 Nordeste 0 -- -- 81
2020-01-08 20:00:00 11.9 9 Nordeste 17 Nordeste 0 -- -- 79
2020-01-08 19:00:00 11.9 10 Nordeste 17 Nordeste 0 -- -- 78
2020-01-08 18:00:00 12.4 13 Nordeste 27 Nordeste 0 -- -- 76
2020-01-08 17:00:00 13 20 Nordeste 30 Nordeste 0 -- -- 71
2020-01-08 16:00:00 13.4 21 Nordeste 31 Nordeste 0 -- -- 69
2020-01-08 15:00:00 13.5 18 Nordeste 32 Norte 0 -- -- 71
2020-01-08 14:00:00 13.7 19 Nordeste 34 Norte 0 -- -- 72
2020-01-08 13:00:00 13.5 19 Norte 32 Norte 0 -- -- 74
2020-01-08 12:00:00 13.6 22 Norte 33 Norte 0 -- -- 76
2020-01-08 11:00:00 13.8 19 Norte 30 Norte 0 -- -- 74
2020-01-08 10:00:00 13.5 21 Norte 32 Norte 0 -- -- 78
2020-01-08 09:00:00 12.5 18 Norte 28 Norte 0 -- -- 81
2020-01-08 08:00:00 11.7 13 Norte 37 Norte 0 -- -- 77
2020-01-08 07:00:00 12.2 23 Norte 42 Norte 0 -- -- 77
2020-01-08 06:00:00 12.1 26 Norte 42 Norte 0 -- -- 80
2020-01-08 05:00:00 12.3 19 Noroeste 33 Norte 0 -- -- 85
2020-01-08 04:00:00 12.3 16 Noroeste 28 Noroeste 0 -- -- 86
2020-01-08 03:00:00 12.1 14 Noroeste 32 Noroeste 0 -- -- 86
2020-01-08 02:00:00 11.7 10 Noroeste 18 Noroeste 0 -- -- 85
2020-01-08 01:00:00 10.9 6 Noroeste 18 Noroeste 0 -- -- 84
2020-01-08 00:00:00 11 9 Noroeste 19 Oeste 0 -- -- 84
2020-01-07 23:00:00 10.1 4 Sudoeste 12 Noroeste 0 -- -- 82
2020-01-07 22:00:00 10.8 6 Noroeste 15 Noroeste 0 -- -- 84
2020-01-07 21:00:00 11 6 Noroeste 13 Noroeste 0 -- -- 87
2020-01-07 20:00:00 10.5 2 Oeste 12 Sudoeste 0 -- -- 87
2020-01-07 19:00:00 10.8 4 Oeste 10 Sudoeste 0 -- -- 85
2020-01-07 18:00:00 11.5 3 Oeste 15 Noroeste 0 -- -- 81
2020-01-07 17:00:00 12.7 9 Noroeste 21 Noroeste 0 -- -- 77
2020-01-07 16:00:00 13.5 12 Noroeste 22 Noroeste 0 -- -- 73
2020-01-07 15:00:00 13.6 10 Norte 19 Noroeste 0 -- -- 74
2020-01-07 14:00:00 13.7 11 Noroeste 18 Norte 0 -- -- 76
2020-01-07 13:00:00 13.5 12 Norte 19 Norte 0 -- -- 76
2020-01-07 12:00:00 13.3 14 Norte 22 Norte 0 -- -- 79
2020-01-07 11:00:00 13.4 9 Norte 14 Norte 0 -- -- 83
2020-01-07 10:00:00 13.4 0 Calma 4 Sur 0 -- -- 86
2020-01-07 09:00:00 10.4 0 Calma 2 Sudoeste 0 -- -- 90
2020-01-07 08:00:00 8.6 2 Sudoeste 4 Sur 0 -- -- 92
2020-01-07 07:00:00 7.3 0 Calma 6 Oeste 0 -- -- 91
2020-01-07 06:00:00 8.3 4 Sur 8 Sur 0 -- -- 91
2020-01-07 05:00:00 7.4 4 Sudoeste 9 Sur 0 -- -- 90
2020-01-07 04:00:00 8.1 2 Sur 2 Sur 0 -- -- 92
2020-01-07 03:00:00 8.3 0 Calma 4 Oeste 0 -- -- 93
2020-01-07 02:00:00 8.5 0 Calma 3 Oeste 0 -- -- 93
2020-01-07 01:00:00 8.4 0 Calma 3 Sudoeste 0 -- -- 93
2020-01-07 00:00:00 8.3 0 Calma 3 Sudoeste 0 -- -- 92
2020-01-06 23:00:00 8.1 3 Oeste 5 Sur 0 -- -- 90
2020-01-06 22:00:00 8.9 5 Sur 6 Sur 0 -- -- 88
2020-01-06 21:00:00 9.6 3 Sur 4 Oeste 0 -- -- 90
2020-01-06 20:00:00 9.3 3 Sudoeste 6 Sur 0 -- -- 87
2020-01-06 19:00:00 10.1 3 Sur 6 Sur 0 -- -- 86
2020-01-06 18:00:00 10.9 5 Sur 10 Sudoeste 0 -- -- 82
2020-01-06 17:00:00 12.8 8 Sur 12 Sudoeste 0 -- -- 76
2020-01-06 16:00:00 12.9 8 Sudoeste 12 Sudoeste 0 -- -- 78
2020-01-06 15:00:00 13.2 6 Sur 14 Sur 0 -- -- 77
2020-01-06 14:00:00 13 8 Sudoeste 14 Sur 0 -- -- 77
2020-01-06 13:00:00 13.5 7 Sur 15 Sur 0 -- -- 76
2020-01-06 12:00:00 13.5 8 Sur 14 Sur 0 -- -- 76
2020-01-06 11:00:00 12.7 8 Sudeste 11 Sur 0 -- -- 79
2020-01-06 10:00:00 12.2 8 Sudeste 13 Sudeste 0 -- -- 79